Aérodrome :
LOGIN :

S'inscrire | Disclaimer

   EN    FR    IT 

 










Légende :    VFR   VFR Marginal   IFR   IFR Intensif   IFR Très Intensif
Visi : 
Plafond : 
>= 8 km
>= 3000ft
5 à 8 km
1000 à 3000 ft
1500m à 5 km
500 à 1000 ft
800 à 1500m
200 à 500 ft
< 800m
< 200 ft
Symboles :   Orages  Brouillard  Fortes neiges  Fortes précipitations  Vent > 20 kt
SIGMETs :   Divers  Orages  Givrage  Turbulence  Onde Orograph.  Cendres Volcan.






- Altitude de l'aérodrome : 313 ft
- Code IATA : LEH


LFOH - Le Havre Octeville

DERNIER METAR :
  • 202200Z AUTO 18019G30KT 9999 BKN018 OVC032 10/07 Q0983

METARs EXPIRÉS :
  • 202130Z AUTO 18021G40KT 140V210 9999 BKN022 BKN029 BKN035 10/07 Q0983
  • 202100Z AUTO 18019G30KT 9999 BKN025/// OVC030/// ///TCU 10/06 Q0984
  • 202030Z AUTO 17020G32KT 9999 BKN027/// BKN041/// BKN052/// ///TCU 10/06 Q0984
  • 202000Z AUTO 17016G28KT 9999 SCT032 BKN040 BKN062 10/05 Q0985
  • 201930Z AUTO 16018G33KT CAVOK 10/05 Q0986 TEMPO 3000 RA BKN009 OVC015

TAF TAF LFOH
Valide du 20 à 12h jusqu'au 21 à 12h UTC


201100Z 2012/2112 18020G30KT 9999 BKN045
BECMG 2015/2018 18025G40KT
TEMPO 2021/2024 3000 RA BKN009 OVC015
BECMG 2023/2101 25025G45KT
TEMPO 2101/2106 3000 SHRA BKN020CB
BECMG 2103/2106 22020G30KT
ATIS : +33 2 35 54 64 93



MET'MAP, la Météo Aéronautique d'un coup d'oeil ! - Copyright ORBIFLY Décembre 2007 - Disclaimer

ORBIFLY MET'MAP TEAM :

Programmation & Développement : Alexandra Zaïnal
Sur une idée originale de : Baudouin d'Aumeries
Assistance à la programmation : Marc-Olivier Méhu
Soutien technique & logistique : Manuel Goepfert

Contact : metmap@orbifly.com




SOURCES & CREDITS :

   NOAA